sensor_id;sensor_type;location;lat;lon;timestamp;pressure;altitude;pressure_sealevel;temperature;humidity
66430;BME280;53242;51.694;10.006;2023-04-24T00:01:40;98166.91;;;12.75;70.73
66430;BME280;53242;51.694;10.006;2023-04-24T00:04:05;98171.72;;;12.78;70.43
66430;BME280;53242;51.694;10.006;2023-04-24T00:06:29;98166.50;;;12.66;71.36
66430;BME280;53242;51.694;10.006;2023-04-24T00:09:00;98173.53;;;12.61;71.30
66430;BME280;53242;51.694;10.006;2023-04-24T00:11:22;98163.44;;;12.58;71.30
66430;BME280;53242;51.694;10.006;2023-04-24T00:13:45;98171.97;;;12.60;70.97
66430;BME280;53242;51.694;10.006;2023-04-24T00:16:07;98177.47;;;12.58;71.23
66430;BME280;53242;51.694;10.006;2023-04-24T00:18:30;98176.84;;;12.68;70.62
66430;BME280;53242;51.694;10.006;2023-04-24T00:20:52;98167.63;;;12.71;70.50
66430;BME280;53242;51.694;10.006;2023-04-24T00:23:14;98160.72;;;12.53;71.36
66430;BME280;53242;51.694;10.006;2023-04-24T00:25:37;98166.09;;;12.41;71.85
66430;BME280;53242;51.694;10.006;2023-04-24T00:28:00;98167.88;;;12.52;71.19
66430;BME280;53242;51.694;10.006;2023-04-24T00:30:22;98165.44;;;12.50;71.18
66430;BME280;53242;51.694;10.006;2023-04-24T00:32:45;98176.69;;;12.41;72.10
66430;BME280;53242;51.694;10.006;2023-04-24T00:35:07;98179.25;;;12.53;71.53
66430;BME280;53242;51.694;10.006;2023-04-24T00:37:29;98184.38;;;12.42;72.13
66430;BME280;53242;51.694;10.006;2023-04-24T00:39:52;98181.91;;;12.53;71.13
66430;BME280;53242;51.694;10.006;2023-04-24T00:42:15;98186.44;;;12.40;71.76
66430;BME280;53242;51.694;10.006;2023-04-24T00:44:37;98183.06;;;12.28;72.70
66430;BME280;53242;51.694;10.006;2023-04-24T00:47:00;98180.66;;;12.26;72.68
66430;BME280;53242;51.694;10.006;2023-04-24T00:49:23;98181.53;;;12.32;72.17
66430;BME280;53242;51.694;10.006;2023-04-24T00:51:46;98180.34;;;12.23;72.83
66430;BME280;53242;51.694;10.006;2023-04-24T00:54:09;98173.03;;;12.30;72.21
66430;BME280;53242;51.694;10.006;2023-04-24T00:56:31;98166.72;;;12.31;72.00
66430;BME280;53242;51.694;10.006;2023-04-24T00:58:55;98171.91;;;12.26;72.04
66430;BME280;53242;51.694;10.006;2023-04-24T01:01:19;98160.91;;;12.17;72.07
66430;BME280;53242;51.694;10.006;2023-04-24T01:03:43;98166.78;;;12.19;72.02
66430;BME280;53242;51.694;10.006;2023-04-24T01:06:06;98164.53;;;12.11;72.21
66430;BME280;53242;51.694;10.006;2023-04-24T01:08:29;98172.13;;;12.07;72.68
66430;BME280;53242;51.694;10.006;2023-04-24T01:10:52;98170.41;;;12.01;72.90
66430;BME280;53242;51.694;10.006;2023-04-24T01:13:15;98156.50;;;11.94;73.13
66430;BME280;53242;51.694;10.006;2023-04-24T01:15:40;98158.56;;;12.04;72.17
66430;BME280;53242;51.694;10.006;2023-04-24T01:18:04;98161.78;;;11.94;72.47
66430;BME280;53242;51.694;10.006;2023-04-24T01:20:26;98154.22;;;11.97;71.97
66430;BME280;53242;51.694;10.006;2023-04-24T01:22:49;98154.47;;;11.96;71.64
66430;BME280;53242;51.694;10.006;2023-04-24T01:25:12;98157.09;;;11.96;71.60
66430;BME280;53242;51.694;10.006;2023-04-24T01:27:34;98158.31;;;11.76;72.12
66430;BME280;53242;51.694;10.006;2023-04-24T01:29:57;98158.16;;;11.83;71.86
66430;BME280;53242;51.694;10.006;2023-04-24T01:32:19;98155.28;;;11.84;71.51
66430;BME280;53242;51.694;10.006;2023-04-24T01:34:42;98150.72;;;11.80;71.60
66430;BME280;53242;51.694;10.006;2023-04-24T01:37:05;98143.81;;;11.79;71.13
66430;BME280;53242;51.694;10.006;2023-04-24T01:39:28;98151.59;;;11.85;70.76
66430;BME280;53242;51.694;10.006;2023-04-24T01:41:54;98142.88;;;11.73;71.09
66430;BME280;53242;51.694;10.006;2023-04-24T01:44:16;98148.94;;;11.85;70.44
66430;BME280;53242;51.694;10.006;2023-04-24T01:46:39;98148.94;;;11.85;70.21
66430;BME280;53242;51.694;10.006;2023-04-24T01:49:02;98150.38;;;11.76;70.66
66430;BME280;53242;51.694;10.006;2023-04-24T01:51:24;98147.44;;;11.61;71.23
66430;BME280;53242;51.694;10.006;2023-04-24T01:53:47;98155.13;;;11.62;71.40
66430;BME280;53242;51.694;10.006;2023-04-24T01:56:09;98154.09;;;11.63;71.35
66430;BME280;53242;51.694;10.006;2023-04-24T01:58:31;98156.06;;;11.44;71.92
66430;BME280;53242;51.694;10.006;2023-04-24T02:00:56;98151.09;;;11.60;71.46
66430;BME280;53242;51.694;10.006;2023-04-24T02:03:18;98139.84;;;11.52;72.18
66430;BME280;53242;51.694;10.006;2023-04-24T02:05:43;98147.78;;;11.52;71.76
66430;BME280;53242;51.694;10.006;2023-04-24T02:08:06;98142.97;;;11.49;72.01
66430;BME280;53242;51.694;10.006;2023-04-24T02:10:28;98143.56;;;11.51;72.18
66430;BME280;53242;51.694;10.006;2023-04-24T02:12:51;98142.28;;;11.42;72.31
66430;BME280;53242;51.694;10.006;2023-04-24T02:15:13;98139.91;;;11.29;73.46
66430;BME280;53242;51.694;10.006;2023-04-24T02:17:36;98145.19;;;11.29;73.71
66430;BME280;53242;51.694;10.006;2023-04-24T02:20:00;98139.22;;;11.33;73.46
66430;BME280;53242;51.694;10.006;2023-04-24T02:22:22;98135.66;;;11.28;73.84
66430;BME280;53242;51.694;10.006;2023-04-24T02:24:45;98128.06;;;11.31;73.78
66430;BME280;53242;51.694;10.006;2023-04-24T02:27:10;98130.72;;;11.31;73.51
66430;BME280;53242;51.694;10.006;2023-04-24T02:29:33;98130.25;;;11.34;73.40
66430;BME280;53242;51.694;10.006;2023-04-24T02:31:56;98127.59;;;11.46;73.05
66430;BME280;53242;51.694;10.006;2023-04-24T02:34:18;98118.09;;;11.33;73.41
66430;BME280;53242;51.694;10.006;2023-04-24T02:36:41;98124.63;;;11.43;73.08
66430;BME280;53242;51.694;10.006;2023-04-24T02:39:04;98133.44;;;11.48;72.92
66430;BME280;53242;51.694;10.006;2023-04-24T02:41:28;98134.59;;;11.41;72.99
66430;BME280;53242;51.694;10.006;2023-04-24T02:43:53;98132.53;;;11.43;72.96
66430;BME280;53242;51.694;10.006;2023-04-24T02:46:17;98130.78;;;11.48;72.67
66430;BME280;53242;51.694;10.006;2023-04-24T02:48:40;98138.16;;;11.46;72.80
66430;BME280;53242;51.694;10.006;2023-04-24T02:51:03;98126.53;;;11.47;72.48
66430;BME280;53242;51.694;10.006;2023-04-24T02:53:26;98115.41;;;11.45;72.79
66430;BME280;53242;51.694;10.006;2023-04-24T02:55:48;98118.84;;;11.46;72.65
66430;BME280;53242;51.694;10.006;2023-04-24T02:58:10;98113.34;;;11.47;72.75
66430;BME280;53242;51.694;10.006;2023-04-24T03:00:34;98113.22;;;11.42;72.77
66430;BME280;53242;51.694;10.006;2023-04-24T03:02:57;98114.41;;;11.34;73.43
66430;BME280;53242;51.694;10.006;2023-04-24T03:05:19;98104.16;;;11.38;73.10
66430;BME280;53242;51.694;10.006;2023-04-24T03:07:42;98108.69;;;11.26;73.74
66430;BME280;53242;51.694;10.006;2023-04-24T03:10:05;98099.16;;;11.25;73.88
66430;BME280;53242;51.694;10.006;2023-04-24T03:12:28;98102.94;;;11.29;73.57
66430;BME280;53242;51.694;10.006;2023-04-24T03:14:51;98103.19;;;11.27;73.34
66430;BME280;53242;51.694;10.006;2023-04-24T03:17:15;98097.66;;;11.29;73.70
66430;BME280;53242;51.694;10.006;2023-04-24T03:19:37;98096.38;;;11.31;73.33
66430;BME280;53242;51.694;10.006;2023-04-24T03:22:05;98094.44;;;11.39;73.03
66430;BME280;53242;51.694;10.006;2023-04-24T03:24:28;98084.75;;;11.44;72.46
66430;BME280;53242;51.694;10.006;2023-04-24T03:26:51;98085.13;;;11.36;72.75
66430;BME280;53242;51.694;10.006;2023-04-24T03:29:30;98081.19;;;11.50;72.08
66430;BME280;53242;51.694;10.006;2023-04-24T03:31:53;98077.25;;;11.53;72.08
66430;BME280;53242;51.694;10.006;2023-04-24T03:34:16;98076.44;;;11.52;72.17
66430;BME280;53242;51.694;10.006;2023-04-24T03:36:39;98080.16;;;11.51;72.09
66430;BME280;53242;51.694;10.006;2023-04-24T03:39:03;98072.88;;;11.59;71.94
66430;BME280;53242;51.694;10.006;2023-04-24T03:41:29;98069.66;;;11.57;72.06
66430;BME280;53242;51.694;10.006;2023-04-24T03:44:05;98075.41;;;11.54;72.53
66430;BME280;53242;51.694;10.006;2023-04-24T03:46:27;98063.91;;;11.60;72.30
66430;BME280;53242;51.694;10.006;2023-04-24T03:48:53;98067.56;;;11.59;73.04
66430;BME280;53242;51.694;10.006;2023-04-24T03:51:19;98066.88;;;11.63;72.62
66430;BME280;53242;51.694;10.006;2023-04-24T03:53:44;98063.13;;;11.59;73.27
66430;BME280;53242;51.694;10.006;2023-04-24T03:56:10;98060.56;;;11.64;73.10
66430;BME280;53242;51.694;10.006;2023-04-24T03:58:33;98069.13;;;11.72;72.90
66430;BME280;53242;51.694;10.006;2023-04-24T04:00:56;98078.00;;;11.65;73.02
66430;BME280;53242;51.694;10.006;2023-04-24T04:03:37;98075.94;;;11.67;73.35
66430;BME280;53242;51.694;10.006;2023-04-24T04:06:00;98073.47;;;11.78;72.90
66430;BME280;53242;51.694;10.006;2023-04-24T04:08:23;98066.44;;;11.83;72.75
66430;BME280;53242;51.694;10.006;2023-04-24T04:10:45;98074.75;;;11.75;73.20
66430;BME280;53242;51.694;10.006;2023-04-24T04:13:08;98071.44;;;11.68;73.94
66430;BME280;53242;51.694;10.006;2023-04-24T04:15:31;98076.03;;;11.73;73.27
66430;BME280;53242;51.694;10.006;2023-04-24T04:17:54;98075.59;;;11.64;73.82
66430;BME280;53242;51.694;10.006;2023-04-24T04:20:16;98085.31;;;11.75;73.77
66430;BME280;53242;51.694;10.006;2023-04-24T04:22:39;98080.03;;;11.75;74.11
66430;BME280;53242;51.694;10.006;2023-04-24T04:25:05;98078.81;;;11.66;74.58
66430;BME280;53242;51.694;10.006;2023-04-24T04:27:27;98075.44;;;11.71;74.37
66430;BME280;53242;51.694;10.006;2023-04-24T04:29:58;98079.69;;;11.72;74.44
66430;BME280;53242;51.694;10.006;2023-04-24T04:32:24;98077.44;;;11.63;74.80
66430;BME280;53242;51.694;10.006;2023-04-24T04:34:47;98079.38;;;11.68;74.28
66430;BME280;53242;51.694;10.006;2023-04-24T04:37:12;98074.22;;;11.61;74.72
66430;BME280;53242;51.694;10.006;2023-04-24T04:39:46;98083.34;;;11.54;75.40
66430;BME280;53242;51.694;10.006;2023-04-24T04:42:14;98083.44;;;11.59;74.88
66430;BME280;53242;51.694;10.006;2023-04-24T04:44:39;98082.41;;;11.60;74.92
66430;BME280;53242;51.694;10.006;2023-04-24T04:47:03;98087.34;;;11.56;75.00
66430;BME280;53242;51.694;10.006;2023-04-24T04:49:29;98079.06;;;11.64;74.64
66430;BME280;53242;51.694;10.006;2023-04-24T04:51:51;98075.50;;;11.59;74.71
66430;BME280;53242;51.694;10.006;2023-04-24T04:54:15;98085.13;;;11.65;74.82
66430;BME280;53242;51.694;10.006;2023-04-24T04:56:38;98088.47;;;11.60;75.44
66430;BME280;53242;51.694;10.006;2023-04-24T04:59:00;98080.72;;;11.71;74.63
66430;BME280;53242;51.694;10.006;2023-04-24T05:01:23;98087.66;;;11.89;74.23
66430;BME280;53242;51.694;10.006;2023-04-24T05:03:46;98089.00;;;11.74;75.11
66430;BME280;53242;51.694;10.006;2023-04-24T05:06:11;98095.41;;;11.78;74.84
66430;BME280;53242;51.694;10.006;2023-04-24T05:08:35;98093.34;;;11.80;74.94
66430;BME280;53242;51.694;10.006;2023-04-24T05:10:58;98096.88;;;11.86;74.62
66430;BME280;53242;51.694;10.006;2023-04-24T05:13:23;98097.44;;;11.88;74.52
66430;BME280;53242;51.694;10.006;2023-04-24T05:15:46;98092.06;;;11.83;75.13
66430;BME280;53242;51.694;10.006;2023-04-24T05:18:09;98101.47;;;11.91;74.98
66430;BME280;53242;51.694;10.006;2023-04-24T05:20:32;98097.28;;;11.95;74.76
66430;BME280;53242;51.694;10.006;2023-04-24T05:22:55;98105.00;;;11.96;75.62
66430;BME280;53242;51.694;10.006;2023-04-24T05:25:18;98108.66;;;12.07;75.79
66430;BME280;53242;51.694;10.006;2023-04-24T05:27:48;98101.06;;;12.11;75.48
66430;BME280;53242;51.694;10.006;2023-04-24T05:30:13;98101.53;;;12.25;75.13
66430;BME280;53242;51.694;10.006;2023-04-24T05:32:35;98106.88;;;12.13;75.29
66430;BME280;53242;51.694;10.006;2023-04-24T05:34:57;98103.78;;;12.33;73.99
66430;BME280;53242;51.694;10.006;2023-04-24T05:37:21;98115.09;;;12.45;73.64
66430;BME280;53242;51.694;10.006;2023-04-24T05:39:44;98125.91;;;12.44;73.57
66430;BME280;53242;51.694;10.006;2023-04-24T05:42:06;98123.34;;;12.49;73.56
66430;BME280;53242;51.694;10.006;2023-04-24T05:44:28;98122.47;;;12.43;73.07
66430;BME280;53242;51.694;10.006;2023-04-24T05:46:51;98126.56;;;12.34;72.97
66430;BME280;53242;51.694;10.006;2023-04-24T05:49:14;98125.91;;;12.27;72.74
66430;BME280;53242;51.694;10.006;2023-04-24T05:51:36;98118.63;;;12.34;72.50
66430;BME280;53242;51.694;10.006;2023-04-24T05:53:59;98122.47;;;12.26;72.74
66430;BME280;53242;51.694;10.006;2023-04-24T05:56:22;98129.41;;;12.15;73.00
66430;BME280;53242;51.694;10.006;2023-04-24T05:58:46;98138.25;;;12.21;73.37
66430;BME280;53242;51.694;10.006;2023-04-24T06:01:08;98130.50;;;12.03;74.54
66430;BME280;53242;51.694;10.006;2023-04-24T06:03:31;98128.97;;;12.19;74.57
66430;BME280;53242;51.694;10.006;2023-04-24T06:05:54;98127.50;;;12.11;75.46
66430;BME280;53242;51.694;10.006;2023-04-24T06:08:18;98128.13;;;12.18;75.45
66430;BME280;53242;51.694;10.006;2023-04-24T06:10:42;98132.16;;;12.38;74.75
66430;BME280;53242;51.694;10.006;2023-04-24T06:13:06;98134.09;;;12.42;74.49
66430;BME280;53242;51.694;10.006;2023-04-24T06:15:31;98132.81;;;12.45;74.43
66430;BME280;53242;51.694;10.006;2023-04-24T06:18:01;98131.63;;;12.53;73.93
66430;BME280;53242;51.694;10.006;2023-04-24T06:20:24;98126.22;;;12.64;73.74
66430;BME280;53242;51.694;10.006;2023-04-24T06:22:46;98135.38;;;12.57;73.71
66430;BME280;53242;51.694;10.006;2023-04-24T06:25:09;98133.31;;;12.59;73.37
66430;BME280;53242;51.694;10.006;2023-04-24T06:27:31;98136.66;;;12.37;73.78
66430;BME280;53242;51.694;10.006;2023-04-24T06:29:54;98136.03;;;12.47;72.78
66430;BME280;53242;51.694;10.006;2023-04-24T06:32:17;98130.09;;;12.40;72.94
66430;BME280;53242;51.694;10.006;2023-04-24T06:34:39;98141.88;;;12.32;74.17
66430;BME280;53242;51.694;10.006;2023-04-24T06:37:02;98149.13;;;12.08;76.79
66430;BME280;53242;51.694;10.006;2023-04-24T06:39:24;98161.97;;;11.75;79.41
66430;BME280;53242;51.694;10.006;2023-04-24T06:41:47;98164.78;;;11.45;80.13
66430;BME280;53242;51.694;10.006;2023-04-24T06:44:15;98167.69;;;11.43;80.30
66430;BME280;53242;51.694;10.006;2023-04-24T06:46:38;98163.91;;;11.39;80.94
66430;BME280;53242;51.694;10.006;2023-04-24T06:49:01;98177.41;;;11.55;80.33
66430;BME280;53242;51.694;10.006;2023-04-24T06:51:24;98176.63;;;11.42;80.70
66430;BME280;53242;51.694;10.006;2023-04-24T06:53:46;98176.94;;;11.58;80.65
66430;BME280;53242;51.694;10.006;2023-04-24T06:56:09;98174.78;;;11.55;79.53
66430;BME280;53242;51.694;10.006;2023-04-24T06:58:31;98172.59;;;11.63;78.41
66430;BME280;53242;51.694;10.006;2023-04-24T07:00:54;98179.94;;;11.61;77.71
66430;BME280;53242;51.694;10.006;2023-04-24T07:03:16;98179.03;;;11.96;76.18
66430;BME280;53242;51.694;10.006;2023-04-24T07:05:38;98184.53;;;12.36;75.18
66430;BME280;53242;51.694;10.006;2023-04-24T07:08:01;98182.84;;;12.46;74.40
66430;BME280;53242;51.694;10.006;2023-04-24T07:10:24;98188.81;;;12.54;73.67
66430;BME280;53242;51.694;10.006;2023-04-24T07:12:47;98188.81;;;12.71;73.84
66430;BME280;53242;51.694;10.006;2023-04-24T07:15:10;98195.03;;;12.47;73.59
66430;BME280;53242;51.694;10.006;2023-04-24T07:17:33;98188.34;;;12.91;72.11
66430;BME280;53242;51.694;10.006;2023-04-24T07:19:55;98186.44;;;13.08;70.16
66430;BME280;53242;51.694;10.006;2023-04-24T07:22:18;98189.09;;;13.42;68.08
66430;BME280;53242;51.694;10.006;2023-04-24T07:24:40;98203.72;;;13.28;68.31
66430;BME280;53242;51.694;10.006;2023-04-24T07:27:03;98203.78;;;13.16;67.56
66430;BME280;53242;51.694;10.006;2023-04-24T07:29:26;98203.63;;;13.23;67.68
66430;BME280;53242;51.694;10.006;2023-04-24T07:31:49;98212.78;;;12.81;67.73
66430;BME280;53242;51.694;10.006;2023-04-24T07:34:11;98217.22;;;12.75;67.49
66430;BME280;53242;51.694;10.006;2023-04-24T07:36:33;98224.81;;;12.72;65.92
66430;BME280;53242;51.694;10.006;2023-04-24T07:38:56;98216.44;;;12.29;65.32
66430;BME280;53242;51.694;10.006;2023-04-24T07:41:19;98223.56;;;11.88;64.08
66430;BME280;53242;51.694;10.006;2023-04-24T07:43:42;98224.59;;;11.87;63.60
66430;BME280;53242;51.694;10.006;2023-04-24T07:46:05;98232.94;;;12.36;63.45
66430;BME280;53242;51.694;10.006;2023-04-24T07:48:28;98229.88;;;12.73;62.11
66430;BME280;53242;51.694;10.006;2023-04-24T07:50:50;98226.94;;;12.41;60.85
66430;BME280;53242;51.694;10.006;2023-04-24T07:53:13;98222.53;;;12.46;60.29
66430;BME280;53242;51.694;10.006;2023-04-24T07:55:35;98223.13;;;12.48;60.19
66430;BME280;53242;51.694;10.006;2023-04-24T07:57:58;98217.47;;;12.91;58.72
66430;BME280;53242;51.694;10.006;2023-04-24T08:00:20;98215.75;;;13.19;58.42
66430;BME280;53242;51.694;10.006;2023-04-24T08:02:43;98207.59;;;13.59;58.77
66430;BME280;53242;51.694;10.006;2023-04-24T08:05:06;98219.34;;;13.46;59.17
66430;BME280;53242;51.694;10.006;2023-04-24T08:07:29;98219.47;;;13.57;56.72
66430;BME280;53242;51.694;10.006;2023-04-24T08:09:51;98218.59;;;13.34;56.49
66430;BME280;53242;51.694;10.006;2023-04-24T08:12:13;98221.66;;;13.82;57.25
66430;BME280;53242;51.694;10.006;2023-04-24T08:14:36;98229.25;;;13.73;56.76
66430;BME280;53242;51.694;10.006;2023-04-24T08:16:58;98227.19;;;13.80;55.82
66430;BME280;53242;51.694;10.006;2023-04-24T08:19:22;98236.75;;;14.04;54.72
66430;BME280;53242;51.694;10.006;2023-04-24T08:21:45;98228.72;;;13.98;55.08
66430;BME280;53242;51.694;10.006;2023-04-24T08:24:07;98237.13;;;14.40;54.62
66430;BME280;53242;51.694;10.006;2023-04-24T08:26:30;98226.97;;;14.59;55.46
66430;BME280;53242;51.694;10.006;2023-04-24T08:28:53;98238.09;;;14.56;54.82
66430;BME280;53242;51.694;10.006;2023-04-24T08:31:15;98238.09;;;14.83;53.65
66430;BME280;53242;51.694;10.006;2023-04-24T08:33:37;98236.84;;;14.63;53.55
66430;BME280;53242;51.694;10.006;2023-04-24T08:36:02;98245.06;;;14.89;53.79
66430;BME280;53242;51.694;10.006;2023-04-24T08:38:24;98246.00;;;15.10;53.28
66430;BME280;53242;51.694;10.006;2023-04-24T08:40:47;98249.31;;;14.90;52.35
66430;BME280;53242;51.694;10.006;2023-04-24T08:43:11;98239.19;;;14.05;51.91
66430;BME280;53242;51.694;10.006;2023-04-24T08:45:34;98253.44;;;14.76;52.19
66430;BME280;53242;51.694;10.006;2023-04-24T08:47:57;98248.03;;;14.66;52.47
66430;BME280;53242;51.694;10.006;2023-04-24T08:50:21;98251.34;;;15.16;52.68
66430;BME280;53242;51.694;10.006;2023-04-24T08:52:44;98252.97;;;14.84;51.64
66430;BME280;53242;51.694;10.006;2023-04-24T08:55:06;98255.09;;;15.20;52.28
66430;BME280;53242;51.694;10.006;2023-04-24T08:57:29;98246.34;;;15.19;52.11
66430;BME280;53242;51.694;10.006;2023-04-24T08:59:53;98249.56;;;15.21;52.54
66430;BME280;53242;51.694;10.006;2023-04-24T09:02:16;98257.47;;;15.54;52.59
66430;BME280;53242;51.694;10.006;2023-04-24T09:04:40;98261.97;;;15.16;52.35
66430;BME280;53242;51.694;10.006;2023-04-24T09:07:03;98259.97;;;14.41;52.62
66430;BME280;53242;51.694;10.006;2023-04-24T09:09:26;98262.81;;;14.34;52.97
66430;BME280;53242;51.694;10.006;2023-04-24T09:11:52;98260.47;;;14.10;53.87
66430;BME280;53242;51.694;10.006;2023-04-24T09:14:17;98262.22;;;13.82;54.04
66430;BME280;53242;51.694;10.006;2023-04-24T09:16:41;98261.78;;;13.91;53.72
66430;BME280;53242;51.694;10.006;2023-04-24T09:19:03;98263.84;;;13.84;53.86
66430;BME280;53242;51.694;10.006;2023-04-24T09:21:31;98274.13;;;13.80;52.91
66430;BME280;53242;51.694;10.006;2023-04-24T09:23:59;98271.41;;;13.75;53.02
66430;BME280;53242;51.694;10.006;2023-04-24T09:26:21;98276.22;;;13.39;53.97
66430;BME280;53242;51.694;10.006;2023-04-24T09:28:44;98286.97;;;13.32;53.98
66430;BME280;53242;51.694;10.006;2023-04-24T09:31:19;98296.84;;;13.37;53.90
66430;BME280;53242;51.694;10.006;2023-04-24T09:33:57;98280.63;;;13.33;52.19
66430;BME280;53242;51.694;10.006;2023-04-24T09:36:26;98283.81;;;13.01;53.06
66430;BME280;53242;51.694;10.006;2023-04-24T09:38:55;98276.91;;;13.34;53.98
66430;BME280;53242;51.694;10.006;2023-04-24T09:41:19;98279.81;;;13.32;54.35
66430;BME280;53242;51.694;10.006;2023-04-24T09:43:41;98283.50;;;13.14;54.65
66430;BME280;53242;51.694;10.006;2023-04-24T09:46:06;98285.75;;;13.23;54.65
66430;BME280;53242;51.694;10.006;2023-04-24T09:48:33;98285.31;;;12.97;54.24
66430;BME280;53242;51.694;10.006;2023-04-24T09:50:55;98286.16;;;12.69;55.68
66430;BME280;53242;51.694;10.006;2023-04-24T09:53:23;98276.84;;;12.95;56.20
66430;BME280;53242;51.694;10.006;2023-04-24T09:55:46;98278.38;;;12.91;56.04
66430;BME280;53242;51.694;10.006;2023-04-24T09:58:10;98282.66;;;12.63;55.63
66430;BME280;53242;51.694;10.006;2023-04-24T10:00:33;98283.72;;;12.50;55.98
66430;BME280;53242;51.694;10.006;2023-04-24T10:02:57;98286.28;;;12.45;55.84
66430;BME280;53242;51.694;10.006;2023-04-24T10:05:23;98288.50;;;12.65;55.43
66430;BME280;53242;51.694;10.006;2023-04-24T10:07:45;98284.72;;;12.61;55.44
66430;BME280;53242;51.694;10.006;2023-04-24T10:10:08;98286.44;;;12.84;55.48
66430;BME280;53242;51.694;10.006;2023-04-24T10:12:31;98285.50;;;12.90;55.32
66430;BME280;53242;51.694;10.006;2023-04-24T10:14:54;98290.69;;;12.68;55.76
66430;BME280;53242;51.694;10.006;2023-04-24T10:17:17;98290.41;;;12.53;56.77
66430;BME280;53242;51.694;10.006;2023-04-24T10:19:40;98279.28;;;12.68;56.57
66430;BME280;53242;51.694;10.006;2023-04-24T10:22:03;98277.69;;;12.83;56.00
66430;BME280;53242;51.694;10.006;2023-04-24T10:24:26;98281.22;;;12.89;56.18
66430;BME280;53242;51.694;10.006;2023-04-24T10:26:49;98273.56;;;13.22;56.20
66430;BME280;53242;51.694;10.006;2023-04-24T10:29:13;98270.66;;;13.40;55.98
66430;BME280;53242;51.694;10.006;2023-04-24T10:31:37;98269.47;;;13.48;55.46
66430;BME280;53242;51.694;10.006;2023-04-24T10:34:01;98266.41;;;13.39;55.32
66430;BME280;53242;51.694;10.006;2023-04-24T10:36:24;98268.97;;;13.51;55.55
66430;BME280;53242;51.694;10.006;2023-04-24T10:38:49;98274.66;;;13.60;54.89
66430;BME280;53242;51.694;10.006;2023-04-24T10:41:13;98267.63;;;13.48;55.53
66430;BME280;53242;51.694;10.006;2023-04-24T10:43:42;98268.59;;;13.25;55.95
66430;BME280;53242;51.694;10.006;2023-04-24T10:46:05;98264.06;;;13.26;56.14
66430;BME280;53242;51.694;10.006;2023-04-24T10:48:28;98262.81;;;13.11;56.25
66430;BME280;53242;51.694;10.006;2023-04-24T10:50:52;98268.09;;;13.11;56.02
66430;BME280;53242;51.694;10.006;2023-04-24T10:53:16;98270.34;;;13.03;54.86
66430;BME280;53242;51.694;10.006;2023-04-24T10:58:04;98282.59;;;13.77;53.73
66430;BME280;53242;51.694;10.006;2023-04-24T11:00:26;98272.63;;;13.67;53.02
66430;BME280;53242;51.694;10.006;2023-04-24T11:02:52;98271.78;;;13.61;53.88
66430;BME280;53242;51.694;10.006;2023-04-24T11:05:16;98272.47;;;13.74;53.65
66430;BME280;53242;51.694;10.006;2023-04-24T11:08:13;98264.53;;;13.57;54.41
66430;BME280;53242;51.694;10.006;2023-04-24T11:10:47;98262.69;;;13.57;54.16
66430;BME280;53242;51.694;10.006;2023-04-24T11:13:09;98265.66;;;13.61;54.97
66430;BME280;53242;51.694;10.006;2023-04-24T11:15:32;98272.28;;;13.41;55.79
66430;BME280;53242;51.694;10.006;2023-04-24T11:17:55;98289.75;;;13.08;56.30
66430;BME280;53242;51.694;10.006;2023-04-24T11:20:17;98282.13;;;13.12;55.81
66430;BME280;53242;51.694;10.006;2023-04-24T11:22:40;98279.13;;;13.37;55.41
66430;BME280;53242;51.694;10.006;2023-04-24T11:25:06;98279.75;;;14.06;56.07
66430;BME280;53242;51.694;10.006;2023-04-24T11:27:38;98280.00;;;14.04;55.92
66430;BME280;53242;51.694;10.006;2023-04-24T11:30:02;98274.00;;;14.14;55.05
66430;BME280;53242;51.694;10.006;2023-04-24T11:32:42;98271.00;;;14.55;55.34
66430;BME280;53242;51.694;10.006;2023-04-24T11:35:13;98282.22;;;14.62;54.30
66430;BME280;53242;51.694;10.006;2023-04-24T11:37:38;98292.63;;;14.19;53.72
66430;BME280;53242;51.694;10.006;2023-04-24T11:40:01;98288.16;;;13.97;53.55
66430;BME280;53242;51.694;10.006;2023-04-24T11:42:24;98289.19;;;13.96;55.44
66430;BME280;53242;51.694;10.006;2023-04-24T11:44:47;98303.06;;;13.81;55.41
66430;BME280;53242;51.694;10.006;2023-04-24T11:47:10;98298.38;;;13.89;56.20
66430;BME280;53242;51.694;10.006;2023-04-24T11:49:32;98315.81;;;13.45;56.95
66430;BME280;53242;51.694;10.006;2023-04-24T11:51:55;98321.03;;;13.40;57.70
66430;BME280;53242;51.694;10.006;2023-04-24T11:54:18;98322.75;;;13.18;58.62
66430;BME280;53242;51.694;10.006;2023-04-24T11:56:45;98323.94;;;12.93;61.08
66430;BME280;53242;51.694;10.006;2023-04-24T11:59:08;98337.66;;;12.61;63.34
66430;BME280;53242;51.694;10.006;2023-04-24T12:01:42;98343.19;;;11.95;70.32
66430;BME280;53242;51.694;10.006;2023-04-24T12:04:05;98346.53;;;11.90;73.15
66430;BME280;53242;51.694;10.006;2023-04-24T12:06:27;98334.03;;;11.62;74.46
66430;BME280;53242;51.694;10.006;2023-04-24T12:08:52;98336.94;;;12.37;75.38
66430;BME280;53242;51.694;10.006;2023-04-24T12:11:16;98330.06;;;12.81;73.66
66430;BME280;53242;51.694;10.006;2023-04-24T12:13:40;98328.41;;;12.75;72.98
66430;BME280;53242;51.694;10.006;2023-04-24T12:16:03;98323.88;;;12.59;72.15
66430;BME280;53242;51.694;10.006;2023-04-24T12:18:26;98332.09;;;12.74;71.12
66430;BME280;53242;51.694;10.006;2023-04-24T12:20:49;98339.59;;;12.65;69.83
66430;BME280;53242;51.694;10.006;2023-04-24T12:23:11;98339.44;;;12.43;70.72
66430;BME280;53242;51.694;10.006;2023-04-24T12:25:34;98333.53;;;12.12;70.90
66430;BME280;53242;51.694;10.006;2023-04-24T12:30:27;98354.00;;;11.93;70.38
66430;BME280;53242;51.694;10.006;2023-04-24T12:32:52;98359.75;;;11.90;69.72
66430;BME280;53242;51.694;10.006;2023-04-24T12:35:23;98382.28;;;11.81;68.57
66430;BME280;53242;51.694;10.006;2023-04-24T12:37:46;98383.53;;;11.78;68.59